Time;durP1;ratioP1;P1;durP2;ratioP2;P2;SDS_P1;SDS_P2;PMS_P1;PMS_P2;Temp;Humidity;BMP_temperature;BMP_pressure;BME280_temperature;BME280_humidity;BME280_pressure;Samples;Min_cycle;Max_cycle;Signal;HPM_P1;HPM_P2
2022/08/05 00:00:32;;;;;;;4.32;2.42;;;;;;;27.04;53.29;98285.19;4141872;28;20570;-52
2022/08/05 00:02:50;;;;;;;4.18;1.55;;;;;;;27.07;53.31;98303.31;4146523;28;20223;-52
2022/08/05 00:04:53;;;;;;;3.50;1.58;;;;;;;27.00;53.46;98312.38;4161443;28;20299;-52
2022/08/05 00:06:56;;;;;;;8.02;2.58;;;;;;;27.09;53.42;98318.63;4126141;28;20209;-53
2022/08/05 00:08:59;;;;;;;3.22;1.73;;;;;;;27.11;53.72;98330.31;4142723;28;20205;-53
2022/08/05 00:11:04;;;;;;;6.40;1.95;;;;;;;27.13;53.72;98336.38;4141838;28;20783;-53
2022/08/05 00:13:20;;;;;;;5.57;1.75;;;;;;;27.14;53.23;98332.44;4144699;28;20208;-53
2022/08/05 00:15:40;;;;;;;4.88;1.70;;;;;;;27.19;53.73;98329.34;4140305;28;20272;-52
2022/08/05 00:17:58;;;;;;;6.30;1.85;;;;;;;27.10;54.93;98320.28;4160123;28;20283;-53
2022/08/05 00:20:03;;;;;;;7.15;2.40;;;;;;;26.73;58.46;98318.06;4123166;28;20252;-53
2022/08/05 00:22:07;;;;;;;4.50;1.67;;;;;;;26.87;57.53;98308.00;4142836;28;20232;-53
2022/08/05 00:24:12;;;;;;;3.13;2.08;;;;;;;26.82;57.24;98313.91;4158976;28;20687;-53
2022/08/05 00:26:25;;;;;;;3.92;2.05;;;;;;;26.85;57.77;98315.97;4146329;28;20204;-53
2022/08/05 00:28:27;;;;;;;4.00;2.17;;;;;;;26.73;57.05;98313.25;4139496;28;20205;-53
2022/08/05 00:30:30;;;;;;;3.58;1.58;;;;;;;26.75;57.27;98310.91;4139729;28;20255;-53
2022/08/05 00:32:32;;;;;;;5.28;2.15;;;;;;;26.73;57.19;98295.59;4144326;28;20283;-53
2022/08/05 00:34:36;;;;;;;4.13;2.28;;;;;;;26.68;57.33;98287.44;4144503;28;20299;-54
2022/08/05 00:36:58;;;;;;;5.60;2.03;;;;;;;26.46;57.56;98273.97;4146605;28;20200;-53
2022/08/05 00:39:13;;;;;;;3.80;1.90;;;;;;;26.29;57.84;98263.88;4161644;28;20207;-53
2022/08/05 00:41:26;;;;;;;4.07;2.25;;;;;;;26.18;58.13;98257.13;4143746;28;20229;-52
2022/08/05 00:43:48;;;;;;;1.85;1.38;;;;;;;26.10;58.00;98251.69;4145939;28;20263;-52
2022/08/05 00:45:50;;;;;;;12.45;1.75;;;;;;;26.13;57.54;98223.72;4143012;28;20234;-52
2022/08/05 00:47:53;;;;;;;4.93;2.67;;;;;;;26.02;57.86;98207.78;4142500;28;20693;-52
2022/08/05 00:50:07;;;;;;;1.77;1.55;;;;;;;26.01;57.77;98192.94;4143421;28;20671;-53
2022/08/05 00:52:10;;;;;;;3.88;1.83;;;;;;;25.98;57.54;98173.22;4144515;28;20275;-53
2022/08/05 00:54:12;;;;;;;5.75;1.90;;;;;;;26.03;57.59;98156.91;4160985;28;20315;-53
2022/08/05 00:56:15;;;;;;;3.35;1.95;;;;;;;25.86;58.43;98154.41;4157273;28;20228;-52
2022/08/05 00:58:23;;;;;;;5.07;1.55;;;;;;;25.98;57.85;98168.41;4135359;28;20675;-53
2022/08/05 01:00:29;;;;;;;3.95;1.95;;;;;;;25.98;58.00;98168.41;4139672;28;20895;-55
2022/08/05 01:02:32;;;;;;;8.45;1.65;;;;;;;26.05;58.04;98179.81;4133828;28;20232;-54
2022/08/05 01:04:34;;;;;;;5.82;1.73;;;;;;;26.10;57.47;98187.97;4157743;28;20220;-53
2022/08/05 01:06:36;;;;;;;7.40;1.90;;;;;;;26.18;57.36;98184.19;4141836;28;20197;-52
2022/08/05 01:08:39;;;;;;;2.97;1.75;;;;;;;26.19;57.73;98168.97;4142024;28;20595;-52
2022/08/05 01:10:54;;;;;;;2.38;1.85;;;;;;;26.15;57.47;98168.09;4143525;28;20204;-52
2022/08/05 01:13:14;;;;;;;4.25;1.70;;;;;;;26.09;57.62;98163.06;4124664;28;20229;-52
2022/08/05 01:15:33;;;;;;;4.72;1.88;;;;;;;26.10;57.65;98171.13;4130845;28;20202;-53
2022/08/05 01:17:42;;;;;;;6.00;1.60;;;;;;;26.17;57.48;98176.94;4137551;28;20627;-53
2022/08/05 01:19:48;;;;;;;3.60;1.73;;;;;;;26.22;57.14;98201.94;4142860;28;20275;-53
2022/08/05 01:22:24;;;;;;;3.22;1.63;;;;;;;26.28;57.11;98217.34;4144030;28;20237;-53
2022/08/05 01:24:37;;;;;;;7.40;2.15;;;;;;;26.23;58.06;98226.03;4161410;28;20200;-54
2022/08/05 01:26:52;;;;;;;8.02;2.60;;;;;;;26.26;60.08;98213.25;4136786;28;20216;-52
2022/08/05 01:29:04;;;;;;;4.15;2.33;;;;;;;26.07;61.42;98211.13;4135010;28;20208;-53
2022/08/05 01:31:16;;;;;;;5.00;2.15;;;;;;;25.95;63.61;98230.84;4162099;28;20215;-52
2022/08/05 01:33:21;;;;;;;3.08;2.70;;;;;;;25.89;64.99;98229.44;4142335;28;20615;-52
2022/08/05 01:35:27;;;;;;;4.05;2.30;;;;;;;25.80;66.37;98231.53;4136219;28;20211;-52
2022/08/05 01:37:52;;;;;;;7.55;2.25;;;;;;;25.71;65.73;98246.88;4145875;28;20286;-52
2022/08/05 01:39:55;;;;;;;4.68;2.13;;;;;;;25.76;67.16;98244.66;4127763;28;20718;-53
2022/08/05 01:42:00;;;;;;;4.15;2.08;;;;;;;25.54;69.62;98245.16;4143011;28;20760;-53
2022/08/05 01:44:05;;;;;;;7.55;2.35;;;;;;;25.56;69.55;98273.69;4128066;28;20249;-52
2022/08/05 01:46:11;;;;;;;5.35;2.88;;;;;;;25.08;71.76;98273.69;4137848;28;20200;-53
2022/08/05 01:48:35;;;;;;;7.05;2.47;;;;;;;24.99;71.74;98270.19;4132930;28;20725;-53
2022/08/05 01:50:38;;;;;;;5.32;2.55;;;;;;;25.06;71.86;98275.22;4143272;28;20205;-52
2022/08/05 01:52:53;;;;;;;6.43;2.42;;;;;;;25.04;71.81;98283.97;4144013;28;20259;-53
2022/08/05 01:54:57;;;;;;;4.93;2.58;;;;;;;24.99;71.58;98289.78;4141970;28;20247;-52
2022/08/05 01:57:02;;;;;;;3.92;2.53;;;;;;;25.02;71.43;98291.91;4140215;28;20287;-52
2022/08/05 01:59:25;;;;;;;5.95;3.35;;;;;;;25.01;71.10;98290.28;4147195;28;20195;-53
2022/08/05 02:01:29;;;;;;;3.60;2.50;;;;;;;25.07;71.06;98272.03;4123490;28;20284;-52
2022/08/05 02:03:44;;;;;;;7.03;2.85;;;;;;;24.95;71.24;98252.47;4142823;28;20214;-52
2022/08/05 02:05:46;;;;;;;6.07;2.78;;;;;;;24.93;71.27;98240.75;4125412;28;20264;-52
2022/08/05 02:07:48;;;;;;;4.75;2.80;;;;;;;24.93;71.51;98232.38;4138813;28;20204;-52
2022/08/05 02:10:01;;;;;;;5.88;2.35;;;;;;;24.78;71.94;98213.47;4142073;28;20208;-52
2022/08/05 02:12:16;;;;;;;3.47;2.30;;;;;;;24.80;72.17;98211.13;4152533;28;20228;-52
2022/08/05 02:14:39;;;;;;;7.22;2.80;;;;;;;24.79;71.77;98215.09;4119435;28;20221;-52
2022/08/05 02:16:48;;;;;;;5.40;2.45;;;;;;;24.85;72.46;98226.91;4141681;28;20299;-52
2022/08/05 02:18:58;;;;;;;3.75;2.53;;;;;;;24.59;73.87;98229.22;4142645;28;20781;-52
2022/08/05 02:21:21;;;;;;;3.17;2.75;;;;;;;24.32;74.72;98216.66;4142784;28;20258;-52
2022/08/05 02:23:25;;;;;;;5.38;2.83;;;;;;;24.25;74.15;98210.81;4143838;28;20826;-51
2022/08/05 02:25:30;;;;;;;4.32;2.42;;;;;;;24.04;76.40;98209.22;4135256;28;20266;-52
2022/08/05 02:27:37;;;;;;;3.53;2.63;;;;;;;24.04;75.79;98235.22;4142885;28;20208;-51
2022/08/05 02:30:00;;;;;;;5.20;3.95;;;;;;;23.64;80.18;98226.84;4138705;28;20234;-53
2022/08/05 02:32:03;;;;;;;6.80;3.78;;;;;;;23.10;82.98;98225.09;4134166;28;20236;-52
2022/08/05 02:34:12;;;;;;;14.77;3.20;;;;;;;23.07;82.33;98211.78;4158529;28;20899;-52
2022/08/05 02:36:17;;;;;;;4.63;3.67;;;;;;;23.19;81.91;98209.13;4140921;28;20207;-52
2022/08/05 02:38:19;;;;;;;5.13;3.70;;;;;;;22.96;81.61;98193.81;4160302;28;20208;-52
2022/08/05 02:40:27;;;;;;;3.80;3.25;;;;;;;23.03;81.71;98194.91;4137541;28;20707;-52
2022/08/05 02:42:29;;;;;;;5.60;3.25;;;;;;;22.91;81.45;98207.97;4134573;28;20232;-52
2022/08/05 02:44:37;;;;;;;4.10;3.40;;;;;;;23.03;81.34;98225.63;4139548;28;20329;-53
2022/08/05 02:46:42;;;;;;;4.25;3.42;;;;;;;22.76;82.21;98236.47;4152401;28;20212;-53
2022/08/05 02:49:01;;;;;;;4.63;3.85;;;;;;;22.77;81.37;98258.44;4144788;28;20223;-52
2022/08/05 02:51:03;;;;;;;7.00;2.92;;;;;;;22.74;81.61;98258.28;4141737;28;20591;-53
2022/08/05 02:53:04;;;;;;;5.40;3.33;;;;;;;22.71;81.54;98275.69;4141842;28;20689;-53
2022/08/05 02:55:12;;;;;;;6.65;2.85;;;;;;;22.89;81.34;98336.69;4125962;28;20573;-53
2022/08/05 02:57:20;;;;;;;9.85;3.58;;;;;;;23.11;81.11;98364.34;4128592;28;20207;-52
2022/08/05 02:59:44;;;;;;;7.25;3.45;;;;;;;23.31;81.17;98396.34;4146531;28;20250;-54
2022/08/05 03:01:56;;;;;;;8.68;4.68;;;;;;;23.22;83.87;98437.44;4126459;28;20614;-53
2022/08/05 03:04:01;;;;;;;5.93;4.05;;;;;;;22.97;83.55;98435.53;4122875;28;20204;-53
2022/08/05 03:06:15;;;;;;;8.52;4.45;;;;;;;22.90;83.04;98429.63;4146146;28;20207;-53
2022/08/05 03:08:38;;;;;;;4.68;3.05;;;;;;;22.99;82.54;98425.66;4143510;28;20236;-54
2022/08/05 03:10:44;;;;;;;7.47;3.50;;;;;;;23.13;81.90;98434.66;4145189;28;20213;-53
2022/08/05 03:13:17;;;;;;;9.43;3.83;;;;;;;23.20;80.60;98400.66;4144465;28;20233;-53
2022/08/05 03:15:28;;;;;;;4.40;2.75;;;;;;;22.99;79.63;98374.59;4139857;28;20209;-53
2022/08/05 03:17:29;;;;;;;5.70;2.65;;;;;;;23.15;79.76;98375.66;4141800;28;20325;-53
2022/08/05 03:19:31;;;;;;;4.20;2.67;;;;;;;23.14;78.93;98358.09;4140781;28;20748;-53
2022/08/05 03:21:36;;;;;;;5.85;2.38;;;;;;;23.23;77.47;98350.53;4159646;28;20215;-52
2022/08/05 03:23:49;;;;;;;5.30;2.97;;;;;;;23.27;77.40;98347.88;4145666;28;20341;-52
2022/08/05 03:25:51;;;;;;;3.70;2.40;;;;;;;23.27;76.99;98340.34;4128517;28;20217;-53
2022/08/05 03:28:13;;;;;;;5.82;2.50;;;;;;;23.32;76.64;98364.47;4146500;28;20667;-53
2022/08/05 03:30:21;;;;;;;7.53;1.95;;;;;;;23.23;77.07;98384.03;4143287;28;20283;-53
2022/08/05 03:32:35;;;;;;;4.90;2.40;;;;;;;23.28;76.50;98397.00;4143846;28;20220;-53
2022/08/05 03:34:37;;;;;;;4.28;2.20;;;;;;;23.32;76.33;98406.34;4141613;28;20523;-53
2022/08/05 03:36:40;;;;;;;3.50;1.85;;;;;;;23.28;76.36;98391.41;4143296;28;20212;-53
2022/08/05 03:38:42;;;;;;;4.57;1.95;;;;;;;23.28;76.47;98397.84;4141225;28;20561;-53
2022/08/05 03:40:53;;;;;;;9.52;2.15;;;;;;;23.31;76.16;98418.69;4141311;28;20209;-53
2022/08/05 03:42:58;;;;;;;3.70;2.38;;;;;;;23.25;76.78;98406.84;4122256;28;20233;-52
2022/08/05 03:45:20;;;;;;;2.90;1.80;;;;;;;23.30;76.48;98417.06;4144523;28;20674;-52
2022/08/05 03:47:24;;;;;;;4.03;2.85;;;;;;;23.16;76.97;98434.00;4144806;28;20243;-53
2022/08/05 03:49:31;;;;;;;3.17;2.30;;;;;;;22.99;77.71;98444.38;4127606;28;20564;-52
2022/08/05 03:51:52;;;;;;;5.35;2.40;;;;;;;22.71;79.15;98445.91;4143651;28;20223;-53
2022/08/05 03:54:19;;;;;;;3.60;3.30;;;;;;;22.71;78.72;98459.88;4145413;28;20307;-54
2022/08/05 03:56:42;;;;;;;9.18;2.05;;;;;;;22.82;78.04;98466.72;4130662;28;21468;-53
2022/08/05 03:58:47;;;;;;;2.63;2.20;;;;;;;22.88;78.42;98459.81;4137905;28;20729;-52
2022/08/05 04:00:52;;;;;;;4.05;2.20;;;;;;;22.82;78.42;98455.56;4138160;28;20275;-52
2022/08/05 04:02:55;;;;;;;3.30;2.40;;;;;;;22.83;78.40;98446.06;4136693;28;20488;-52
2022/08/05 04:05:01;;;;;;;2.53;2.13;;;;;;;22.57;79.45;98425.75;4141155;28;20581;-53
2022/08/05 04:07:04;;;;;;;6.45;2.85;;;;;;;22.61;78.97;98444.28;4141022;28;20201;-53
2022/08/05 04:09:08;;;;;;;3.08;2.70;;;;;;;22.68;78.39;98455.75;4140969;28;20208;-53
2022/08/05 04:11:10;;;;;;;2.40;2.20;;;;;;;22.62;79.01;98461.81;4124322;28;20212;-53
2022/08/05 04:13:12;;;;;;;3.53;2.63;;;;;;;22.66;78.96;98458.06;4156984;28;20204;-53
2022/08/05 04:15:14;;;;;;;4.78;3.45;;;;;;;22.44;79.52;98465.78;4140185;28;20655;-53
2022/08/05 04:17:17;;;;;;;2.72;2.53;;;;;;;22.41;79.29;98470.03;4141115;28;20687;-53
2022/08/05 04:19:20;;;;;;;5.70;2.55;;;;;;;22.40;79.52;98471.16;4133872;28;20619;-53
2022/08/05 04:21:23;;;;;;;4.00;3.13;;;;;;;22.41;79.34;98477.56;4126694;28;20213;-53
2022/08/05 04:23:45;;;;;;;2.95;2.63;;;;;;;22.28;79.87;98473.78;4145253;28;20208;-53
2022/08/05 04:26:07;;;;;;;2.53;2.33;;;;;;;22.32;79.71;98469.19;4142525;28;20211;-53
2022/08/05 04:28:14;;;;;;;3.67;2.58;;;;;;;22.38;79.22;98462.28;4137503;28;20208;-53
2022/08/05 04:30:17;;;;;;;2.85;2.65;;;;;;;22.44;78.84;98471.38;4141369;28;20205;-52
2022/08/05 04:32:19;;;;;;;6.03;2.47;;;;;;;22.48;78.90;98483.50;4143010;28;20252;-53
2022/08/05 04:34:34;;;;;;;3.13;2.80;;;;;;;22.48;78.70;98497.44;4133411;28;20197;-53
2022/08/05 04:36:43;;;;;;;2.92;2.63;;;;;;;22.55;78.65;98481.03;4132450;28;21035;-52
2022/08/05 04:38:53;;;;;;;3.25;2.60;;;;;;;22.32;79.66;98451.63;4140272;28;20606;-53
2022/08/05 04:40:57;;;;;;;3.85;2.67;;;;;;;22.24;79.67;98466.41;4140684;28;20201;-52
2022/08/05 04:42:59;;;;;;;2.33;2.13;;;;;;;22.31;79.16;98478.69;4135992;28;20268;-53
2022/08/05 04:45:02;;;;;;;6.07;2.72;;;;;;;22.43;78.90;98492.84;4139971;28;20215;-53
2022/08/05 04:47:04;;;;;;;3.28;2.70;;;;;;;22.56;78.44;98493.84;4139182;28;20682;-53
2022/08/05 04:49:10;;;;;;;3.80;2.40;;;;;;;22.56;78.98;98491.88;4143347;28;20211;-53
2022/08/05 04:51:16;;;;;;;3.28;2.97;;;;;;;22.52;79.71;98490.06;4141670;28;20204;-52
2022/08/05 04:53:18;;;;;;;2.35;2.08;;;;;;;22.56;79.28;98485.50;4133084;28;20208;-52
2022/08/05 04:55:21;;;;;;;2.85;2.63;;;;;;;22.65;79.20;98483.50;4138994;28;20216;-53
2022/08/05 04:57:44;;;;;;;5.38;2.85;;;;;;;22.51;80.12;98488.44;4141322;28;20244;-52
2022/08/05 04:59:54;;;;;;;5.68;3.05;;;;;;;22.51;79.80;98477.28;4141581;28;20208;-52
2022/08/05 05:01:57;;;;;;;3.10;2.80;;;;;;;22.54;79.63;98471.84;4134042;28;20339;-52
2022/08/05 05:04:19;;;;;;;3.83;2.97;;;;;;;22.55;80.15;98478.25;4121787;28;20204;-53
2022/08/05 05:06:21;;;;;;;2.35;2.15;;;;;;;22.55;80.26;98467.09;4141211;28;20295;-53
2022/08/05 05:08:42;;;;;;;3.00;2.22;;;;;;;22.60;80.38;98475.28;4128060;28;20261;-53
2022/08/05 05:10:50;;;;;;;5.18;2.47;;;;;;;22.58;80.17;98488.75;4154050;28;20683;-52
2022/08/05 05:12:57;;;;;;;3.83;2.63;;;;;;;22.53;80.39;98483.34;4133655;28;20264;-52
2022/08/05 05:14:59;;;;;;;4.60;2.42;;;;;;;22.53;80.04;98470.22;4155462;28;20266;-53
2022/08/05 05:17:04;;;;;;;6.78;2.80;;;;;;;22.57;79.83;98473.19;4138311;28;20621;-53
2022/08/05 05:19:09;;;;;;;3.40;3.10;;;;;;;22.56;79.56;98457.59;4142552;28;20209;-53
2022/08/05 05:21:24;;;;;;;4.72;2.47;;;;;;;22.48;80.46;98453.63;4144094;28;20641;-53
2022/08/05 05:23:27;;;;;;;3.67;2.30;;;;;;;22.50;80.09;98467.28;4141282;28;20232;-53
2022/08/05 05:25:49;;;;;;;5.25;2.80;;;;;;;22.54;79.60;98455.13;4156361;28;20633;-53
2022/08/05 05:27:54;;;;;;;2.83;2.63;;;;;;;22.26;80.30;98441.78;4134969;28;20206;-53
2022/08/05 05:29:56;;;;;;;3.53;3.03;;;;;;;22.32;80.03;98443.28;4142738;28;20213;-53
2022/08/05 05:32:05;;;;;;;3.13;2.88;;;;;;;22.42;80.10;98437.34;4140336;28;20757;-53
2022/08/05 05:34:13;;;;;;;3.50;3.20;;;;;;;22.17;82.69;98435.41;4157727;28;20199;-53
2022/08/05 05:36:16;;;;;;;4.28;3.30;;;;;;;21.95;84.38;98432.72;4141359;28;20209;-53
2022/08/05 05:38:20;;;;;;;4.95;3.53;;;;;;;21.77;84.85;98434.66;4138452;28;20244;-53
2022/08/05 05:40:29;;;;;;;3.85;3.53;;;;;;;21.73;85.12;98422.56;4139103;28;20436;-54
2022/08/05 05:42:33;;;;;;;4.03;3.20;;;;;;;21.75;85.58;98411.88;4139186;28;20328;-53
2022/08/05 05:44:41;;;;;;;2.95;2.65;;;;;;;21.87;85.02;98427.97;4157521;28;20216;-52
2022/08/05 05:46:49;;;;;;;3.65;3.33;;;;;;;21.96;84.21;98417.66;4140094;28;20235;-52
2022/08/05 05:48:51;;;;;;;3.90;3.45;;;;;;;21.82;85.30;98408.59;4156107;28;20753;-52
2022/08/05 05:50:53;;;;;;;4.20;3.90;;;;;;;21.78;85.23;98404.84;4139106;28;21832;-53
2022/08/05 05:52:55;;;;;;;6.88;3.85;;;;;;;21.70;85.72;98389.75;4136093;28;20224;-52
2022/08/05 05:55:02;;;;;;;4.70;4.30;;;;;;;21.60;86.13;98387.25;4158427;28;20236;-52
2022/08/05 05:57:13;;;;;;;4.85;4.18;;;;;;;21.71;86.19;98407.31;4116440;28;20727;-53
2022/08/05 05:59:24;;;;;;;5.13;3.97;;;;;;;21.68;86.74;98403.19;4158625;28;20208;-52
2022/08/05 06:01:30;;;;;;;5.47;3.70;;;;;;;21.75;86.14;98409.09;4143996;28;20205;-52
2022/08/05 06:03:42;;;;;;;4.05;3.75;;;;;;;21.73;87.30;98405.84;4125481;28;20221;-52
2022/08/05 06:06:05;;;;;;;5.45;5.05;;;;;;;21.66;87.91;98421.34;4135481;28;20657;-52
2022/08/05 06:08:09;;;;;;;4.88;4.18;;;;;;;21.61;88.34;98429.84;4142945;28;20226;-52
2022/08/05 06:10:11;;;;;;;7.22;5.15;;;;;;;21.54;88.89;98429.50;4141871;28;20304;-52
2022/08/05 06:12:13;;;;;;;5.70;3.65;;;;;;;21.62;87.66;98445.41;4139856;28;20315;-52
2022/08/05 06:14:16;;;;;;;5.20;4.70;;;;;;;21.57;87.98;98435.22;4123954;28;20676;-53
2022/08/05 06:16:17;;;;;;;4.57;4.18;;;;;;;21.48;88.02;98419.63;4157758;28;20243;-52
2022/08/05 06:18:33;;;;;;;4.28;3.92;;;;;;;21.48;87.43;98402.94;4145669;28;20627;-52
2022/08/05 06:20:39;;;;;;;3.33;3.05;;;;;;;21.58;86.74;98419.34;4158635;28;20211;-53
2022/08/05 06:22:48;;;;;;;3.92;3.63;;;;;;;21.60;85.23;98411.50;4149252;28;20326;-53
2022/08/05 06:24:51;;;;;;;4.10;2.97;;;;;;;21.75;84.77;98425.81;4136514;28;20236;-53
2022/08/05 06:26:53;;;;;;;4.35;2.85;;;;;;;21.91;84.01;98440.13;4137821;28;20643;-53
2022/08/05 06:28:56;;;;;;;3.70;3.40;;;;;;;21.98;84.37;98466.34;4133263;28;20233;-53
2022/08/05 06:30:57;;;;;;;3.55;3.25;;;;;;;22.05;84.03;98479.81;4139427;28;20303;-53
2022/08/05 06:32:59;;;;;;;4.50;3.33;;;;;;;22.11;83.24;98501.63;4140332;28;20651;-53
2022/08/05 06:35:01;;;;;;;2.88;2.65;;;;;;;22.18;83.21;98501.16;4142058;28;20209;-53
2022/08/05 06:37:26;;;;;;;3.45;3.15;;;;;;;21.90;84.40;98505.38;4142323;28;20656;-53
2022/08/05 06:39:51;;;;;;;3.17;2.67;;;;;;;21.94;83.71;98486.84;4145636;28;20212;-52
2022/08/05 06:41:55;;;;;;;5.97;2.50;;;;;;;22.09;83.24;98466.84;4141773;28;20664;-51
2022/08/05 06:43:59;;;;;;;2.97;2.72;;;;;;;22.04;82.91;98484.56;4144107;28;20213;-51
2022/08/05 06:46:01;;;;;;;3.70;3.40;;;;;;;22.06;83.05;98493.44;4142684;28;20197;-52
2022/08/05 06:48:08;;;;;;;4.28;2.78;;;;;;;21.84;82.60;98495.50;4160823;28;20213;-52
2022/08/05 06:50:29;;;;;;;5.53;2.00;;;;;;;21.75;82.08;98503.00;4144403;28;20668;-53
2022/08/05 06:52:33;;;;;;;3.58;2.42;;;;;;;21.65;84.22;98533.91;4124788;28;20226;-52
2022/08/05 06:54:38;;;;;;;3.88;2.85;;;;;;;21.43;85.52;98522.84;4144623;28;20213;-51
2022/08/05 06:56:40;;;;;;;2.60;2.40;;;;;;;21.21;86.07;98511.72;4146090;28;20209;-51
2022/08/05 06:58:55;;;;;;;3.22;3.00;;;;;;;21.24;85.93;98497.19;4148256;28;20205;-51
2022/08/05 07:00:59;;;;;;;3.17;2.35;;;;;;;21.22;85.43;98499.44;4143079;28;20214;-52
2022/08/05 07:03:01;;;;;;;3.35;3.05;;;;;;;21.20;85.00;98501.75;4138231;28;20268;-52
2022/08/05 07:05:03;;;;;;;2.65;2.42;;;;;;;21.34;85.04;98520.00;4133241;28;20673;-52
2022/08/05 07:07:19;;;;;;;3.60;2.35;;;;;;;21.32;85.32;98541.75;4135567;28;20717;-53
2022/08/05 07:09:40;;;;;;;2.80;2.60;;;;;;;21.05;86.36;98555.03;4128025;28;20214;-53
2022/08/05 07:11:43;;;;;;;4.55;2.75;;;;;;;21.09;87.06;98556.03;4156647;28;20261;-52
2022/08/05 07:19:02;;;;;;;2.60;2.30;;;;;;;21.39;85.32;98532.97;4160874;28;20197;-53
2022/08/05 07:21:05;;;;;;;3.80;3.17;;;;;;;21.51;85.48;98524.84;4161429;28;20240;-51
2022/08/05 07:23:09;;;;;;;6.32;3.05;;;;;;;21.62;85.11;98492.75;4143684;28;20260;-52
2022/08/05 07:25:27;;;;;;;3.80;2.28;;;;;;;21.67;84.44;98496.28;4130350;28;20289;-52
2022/08/05 07:27:50;;;;;;;4.63;2.47;;;;;;;21.71;83.07;98507.59;4147841;28;20211;-52
2022/08/05 07:30:03;;;;;;;2.83;2.63;;;;;;;21.32;84.51;98518.69;4130299;28;20285;-51
2022/08/05 07:32:25;;;;;;;4.68;3.08;;;;;;;21.14;86.26;98519.72;4161131;28;20229;-51
2022/08/05 07:34:27;;;;;;;3.20;2.92;;;;;;;21.24;86.29;98513.91;4139614;28;20292;-52
2022/08/05 07:36:29;;;;;;;6.78;2.92;;;;;;;21.27;85.63;98516.03;4124923;28;20611;-52
2022/08/05 07:38:32;;;;;;;7.00;2.63;;;;;;;21.26;85.92;98518.00;4122565;28;20252;-52
2022/08/05 07:40:44;;;;;;;3.13;2.88;;;;;;;21.29;85.90;98510.94;4138251;28;20300;-53
2022/08/05 07:42:56;;;;;;;3.38;2.67;;;;;;;21.31;85.49;98517.03;4142462;28;20739;-52
2022/08/05 07:44:59;;;;;;;3.17;2.67;;;;;;;21.34;85.60;98516.38;4155439;28;20239;-52
2022/08/05 07:47:01;;;;;;;5.07;3.60;;;;;;;21.29;88.08;98505.38;4137505;28;20497;-58
2022/08/05 07:49:08;;;;;;;3.83;3.38;;;;;;;21.36;86.92;98497.38;4155491;28;20217;-51
2022/08/05 07:51:10;;;;;;;3.78;3.08;;;;;;;21.37;85.35;98496.28;4143350;28;20209;-52
2022/08/05 07:53:32;;;;;;;2.35;2.10;;;;;;;21.44;85.26;98513.34;4143762;28;20197;-53
2022/08/05 07:55:50;;;;;;;3.83;2.92;;;;;;;21.46;85.05;98516.63;4161557;28;20706;-52
2022/08/05 07:58:15;;;;;;;2.53;2.33;;;;;;;21.56;84.39;98511.59;4143986;28;20254;-52
2022/08/05 08:00:37;;;;;;;2.85;2.45;;;;;;;21.67;83.77;98506.59;4137020;28;21429;-52
2022/08/05 08:02:39;;;;;;;2.78;2.40;;;;;;;21.51;84.08;98505.34;4140485;28;20233;-52
2022/08/05 08:05:01;;;;;;;2.70;2.50;;;;;;;21.48;84.77;98500.41;4160360;28;20197;-52
2022/08/05 08:07:05;;;;;;;2.55;2.35;;;;;;;21.70;84.08;98500.38;4142055;28;20272;-52
2022/08/05 08:09:08;;;;;;;2.50;2.30;;;;;;;21.81;83.92;98508.13;4137468;28;20213;-52
2022/08/05 08:11:09;;;;;;;2.88;2.60;;;;;;;22.00;83.83;98499.47;4143081;28;20251;-52
2022/08/05 08:13:16;;;;;;;4.60;2.67;;;;;;;22.15;83.94;98507.38;4126921;28;20206;-52
2022/08/05 08:15:30;;;;;;;5.80;2.28;;;;;;;22.31;84.31;98494.63;4158154;28;20706;-52
2022/08/05 08:17:52;;;;;;;3.85;2.40;;;;;;;22.37;83.40;98498.91;4145941;28;20209;-52
2022/08/05 08:19:54;;;;;;;2.72;2.38;;;;;;;22.48;84.02;98505.81;4142480;28;20343;-53
2022/08/05 08:22:15;;;;;;;4.78;2.67;;;;;;;22.58;82.61;98516.66;4143502;28;20263;-52
2022/08/05 08:24:17;;;;;;;2.10;1.90;;;;;;;22.60;82.35;98514.34;4140168;28;20219;-53
2022/08/05 08:26:20;;;;;;;2.78;2.53;;;;;;;22.61;82.36;98513.19;4143578;28;20216;-52
2022/08/05 08:28:30;;;;;;;3.17;2.67;;;;;;;22.67;81.71;98509.94;4159355;28;20234;-52
2022/08/05 08:30:38;;;;;;;2.83;2.58;;;;;;;22.75;82.94;98499.91;4142652;28;20780;-52
2022/08/05 08:32:50;;;;;;;2.85;2.42;;;;;;;22.67;80.57;98495.16;4143611;28;20236;-52
2022/08/05 08:34:54;;;;;;;3.05;2.75;;;;;;;22.53;80.71;98486.13;4122004;28;20259;-52
2022/08/05 08:36:57;;;;;;;3.70;2.25;;;;;;;22.51;80.81;98492.03;4140827;28;20292;-52
2022/08/05 08:39:06;;;;;;;2.53;2.20;;;;;;;22.50;80.41;98504.34;4155243;28;20204;-52
2022/08/05 08:41:16;;;;;;;3.65;2.80;;;;;;;22.59;81.42;98495.97;4139136;28;20215;-52
2022/08/05 08:43:20;;;;;;;3.90;3.53;;;;;;;22.56;80.51;98485.50;4124529;28;20244;-53
2022/08/05 08:45:43;;;;;;;3.20;2.60;;;;;;;22.65;80.95;98501.06;4143239;28;20301;-52
2022/08/05 08:47:45;;;;;;;3.75;3.08;;;;;;;22.61;81.55;98504.84;4141719;28;20255;-51
2022/08/05 08:50:09;;;;;;;2.95;2.75;;;;;;;22.74;81.40;98509.44;4144783;28;20251;-53
2022/08/05 08:52:34;;;;;;;4.57;2.63;;;;;;;22.81;82.47;98510.59;4147091;28;20575;-52
2022/08/05 08:54:38;;;;;;;4.25;3.88;;;;;;;22.90;81.76;98505.00;4161718;28;20200;-52
2022/08/05 08:56:43;;;;;;;3.83;3.38;;;;;;;23.26;81.23;98511.03;4122233;28;20660;-52
2022/08/05 08:58:50;;;;;;;2.70;2.50;;;;;;;23.40;78.72;98506.91;4146342;28;20389;-52
2022/08/05 09:00:53;;;;;;;2.78;2.58;;;;;;;23.26;78.14;98513.81;4128248;28;20304;-52
2022/08/05 09:02:56;;;;;;;3.33;2.45;;;;;;;23.18;78.58;98514.66;4145418;28;20315;-52
2022/08/05 09:05:00;;;;;;;3.15;2.33;;;;;;;23.24;78.17;98527.31;4153054;28;20323;-51
2022/08/05 09:07:18;;;;;;;3.83;2.67;;;;;;;23.59;78.74;98532.47;4143115;28;20743;-52
2022/08/05 09:09:30;;;;;;;4.93;2.22;;;;;;;23.89;77.76;98544.56;4163468;28;20681;-51
2022/08/05 09:11:36;;;;;;;2.80;2.45;;;;;;;24.05;77.19;98541.66;4144930;28;20230;-51
2022/08/05 09:13:55;;;;;;;2.50;2.30;;;;;;;24.45;75.91;98551.28;4162945;28;20204;-51
2022/08/05 09:16:17;;;;;;;2.47;2.13;;;;;;;24.63;74.73;98564.06;4133557;28;20258;-52
2022/08/05 09:18:20;;;;;;;5.30;2.83;;;;;;;24.56;72.72;98558.19;4160909;28;20492;-50
2022/08/05 09:20:22;;;;;;;4.63;2.50;;;;;;;24.52;72.23;98559.97;4144180;28;20643;-52
2022/08/05 09:23:02;;;;;;;4.18;2.13;;;;;;;24.51;73.00;98558.34;4150911;28;20740;-51
2022/08/05 09:25:08;;;;;;;2.90;2.22;;;;;;;24.73;71.63;98551.63;4139879;28;20233;-53
2022/08/05 09:27:33;;;;;;;2.85;2.28;;;;;;;24.86;71.56;98545.75;4134540;28;20224;-51
2022/08/05 09:29:55;;;;;;;3.90;2.30;;;;;;;25.06;71.33;98539.31;4145981;28;20757;-51
2022/08/05 09:32:05;;;;;;;5.15;2.85;;;;;;;24.99;71.82;98543.84;4141873;28;20263;-51
2022/08/05 09:34:53;;;;;;;3.25;2.35;;;;;;;25.13;71.99;98542.38;4159287;28;20206;-51
2022/08/05 09:36:55;;;;;;;2.70;2.13;;;;;;;25.39;71.83;98545.78;4143223;28;20204;-51
2022/08/05 09:39:07;;;;;;;4.22;2.35;;;;;;;25.31;70.88;98538.28;4141474;28;20208;-51
2022/08/05 09:41:19;;;;;;;3.67;2.22;;;;;;;25.32;72.23;98559.53;4143820;28;20208;-53
2022/08/05 09:43:28;;;;;;;3.00;2.78;;;;;;;25.17;70.57;98557.34;4142963;28;20240;-53
2022/08/05 09:45:43;;;;;;;2.53;2.33;;;;;;;25.19;70.41;98565.41;4144423;28;20205;-52
2022/08/05 09:48:19;;;;;;;2.92;2.30;;;;;;;25.09;70.56;98577.03;4132552;28;20204;-53
2022/08/05 09:50:21;;;;;;;2.47;2.28;;;;;;;24.85;70.60;98577.72;4135887;28;20201;-52
2022/08/05 09:52:43;;;;;;;2.80;2.55;;;;;;;24.83;70.41;98585.66;4140146;28;20604;-51
2022/08/05 09:54:56;;;;;;;2.70;2.50;;;;;;;24.53;70.60;98584.00;4143166;28;20328;-52
2022/08/05 09:56:57;;;;;;;2.55;2.35;;;;;;;24.65;71.25;98572.13;4136741;28;20258;-51
2022/08/05 09:59:04;;;;;;;4.35;2.60;;;;;;;24.82;72.01;98578.41;4143907;28;20212;-52
2022/08/05 10:01:07;;;;;;;4.55;2.65;;;;;;;24.94;71.56;98577.66;4160131;28;20204;-51
2022/08/05 10:03:23;;;;;;;3.38;3.08;;;;;;;24.88;72.00;98577.06;4145505;28;20204;-51
2022/08/05 10:05:45;;;;;;;2.78;2.47;;;;;;;24.86;70.77;98573.75;4142819;28;20205;-51
2022/08/05 10:07:55;;;;;;;3.05;2.75;;;;;;;24.66;70.01;98568.97;4127356;28;20205;-51
2022/08/05 10:10:30;;;;;;;3.95;2.17;;;;;;;24.48;70.24;98567.44;4139433;28;20622;-52
2022/08/05 10:12:39;;;;;;;2.55;2.03;;;;;;;24.42;69.84;98563.19;4143185;28;20224;-51
2022/08/05 10:14:50;;;;;;;2.80;2.60;;;;;;;24.07;70.32;98583.28;4155507;28;20204;-53